• Join FlightAware (Why Join?)
  • Login
  • US Flag GB Flag 
19:16 EST


 

Airport Tracker/Info


-or-


 

Live Flight TrackerFlight Track Log ✈ OPT332 ✈ 21-Sep-2013 ✈ KHOU - KDIJ

Flight Track Log - Related Links

Times and Time Zones

All times are in EDT time to prevent confusion due to time zone crossing. See the OPT332 flight status page for this flight to view local times or setup timezone preferences in your user account.

Time Position Orientation Groundspeed Altitude Reporting Facility
EDT Latitude Longitude Course Direction KTS MPH feet Rate Location/Type
14:30 29.6683 -95.2917 357° North 163 188 2,600  Level FlightAware ADS-B
14:30 29.6786 -95.2916 North 169 194 3,200 1,980 Climbing FlightAware ADS-B
14:30 29.6809 -95.2914 North 169 194 3,300 1,980 Climbing FlightAware ADS-B
14:30 29.6879 -95.2913 North 180 207 3,700 3,240 Climbing FlightAware ADS-B
14:30 29.6910 -95.2914 358° North 185 213 3,900 3,960 Climbing FlightAware ADS-B
14:30 29.6962 -95.2916 359° North 194 223 4,100 1,800 Climbing FlightAware ADS-B
14:31 29.6996 -95.2916 359° North 199 229 4,200 1,980 Climbing FlightAware ADS-B
14:31 29.7126 -95.2917 360° North 215 247 4,800 3,120 Climbing FlightAware ADS-B
14:31 29.7260 -95.2916 North 228 262 5,400 2,760 Climbing FlightAware ADS-B
14:31 29.7289 -95.2914 North 229 264 5,500 2,820 Climbing FlightAware ADS-B
14:31 29.7448 -95.2911 North 229 264 6,400 3,300 Climbing FlightAware ADS-B
14:32 29.7574 -95.2910 360° North 234 269 7,000 3,060 Climbing FlightAware ADS-B
14:32 29.7746 -95.2909 360° North 238 274 7,800 3,840 Climbing FlightAware ADS-B
14:32 29.7803 -95.2910 359° North 241 277 8,100 2,820 Climbing FlightAware ADS-B
14:32 29.7928 -95.2909 360° North 245 282 8,600 2,580 Climbing FlightAware ADS-B
14:32 29.8103 -95.2908 360° North 247 284 9,400 3,000 Climbing FlightAware ADS-B
14:33 29.8255 -95.2906 North 254 292 10,000 3,300 Climbing FlightAware ADS-B
14:33 29.8488 -95.2899 North 255 293 11,000 3,000 Climbing FlightAware ADS-B
14:33 29.8513 -95.2900 357° North 254 292 11,100 2,160 Climbing FlightAware ADS-B
14:33 29.8579 -95.2913 350° North 255 293 11,400 2,400 Climbing FlightAware ADS-B
14:33 29.8630 -95.2935 339° North 256 295 11,500 2,460 Climbing FlightAware ADS-B
14:33 29.8704 -95.2978 333° Northwest 256 295 11,900 3,120 Climbing FlightAware ADS-B
14:33 29.8938 -95.3108 334° Northwest 260 299 12,800 2,460 Climbing FlightAware ADS-B
14:34 29.9039 -95.3160 336° Northwest 264 304 13,200 2,280 Climbing FlightAware ADS-B
14:34 29.9381 -95.3338 336° Northwest 276 318 14,300 2,220 Climbing FlightAware ADS-B
14:34 29.9410 -95.3353 335° Northwest 273 314 14,400 2,400 Climbing FlightAware ADS-B
14:35 29.9814 -95.3565 336° Northwest 283 326 15,900 2,820 Climbing FlightAware ADS-B
14:35 29.9932 -95.3628 335° Northwest 283 326 16,300 1,560 Climbing FlightAware ADS-B
14:38 30.2155 -95.5143 339° North  Level FlightAware Approximate
14:39 30.3062 -95.5546 339° North  Level FlightAware Approximate
14:40 30.3987 -95.5884 344° North  Level FlightAware Approximate
14:41 30.4894 -95.6280 337° Northwest  Level FlightAware Approximate
14:42 30.5785 -95.6726 337° Northwest  Level FlightAware Approximate
14:43 30.6677 -95.7173 330° Northwest  Level FlightAware Approximate
14:44 30.7540 -95.7686 337° Northwest  Level FlightAware Approximate
14:45 30.8432 -95.8132 337° Northwest  Level FlightAware Approximate
14:45 30.8428 -95.8650 341° North 373 429 32,600  Level Fort Worth Center
14:46 30.9324 -95.8579 337° Northwest  Level FlightAware Approximate
14:47 31.0201 -95.9063 332° Northwest  Level FlightAware Approximate
14:48 31.1056 -95.9598 332° Northwest  Level FlightAware Approximate
14:49 31.1970 -95.9975 342° North  Level FlightAware Approximate
14:50 31.2892 -96.0330 342° North  Level FlightAware Approximate
14:51 31.3813 -96.0692 341° North  Level FlightAware Approximate
14:51 31.3956 -96.0732 341° North 353 406 39,700  Level FlightAware ADS-B
14:52 31.4418 -96.0912 342° North 344 396 40,400 1,260 Climbing FlightAware ADS-B
14:52 31.4893 -96.1097 342° North 342 394 41,000 1,140 Climbing FlightAware ADS-B
14:53 31.5349 -96.1275 342° North 337 388 41,600 1,080 Climbing FlightAware ADS-B
14:53 31.5792 -96.1448 342° North 334 384 42,100 840 Climbing FlightAware ADS-B
14:54 31.6273 -96.1637 342° North 335 386 42,500 720 Climbing FlightAware ADS-B
14:54 31.6721 -96.1812 342° North 336 387 42,900 480 Climbing FlightAware ADS-B
14:55 31.7195 -96.1998 342° North 345 397 43,000 60 Climbing FlightAware ADS-B
14:55 31.7677 -96.2187 342° North 355 409 43,000  Level FlightAware ADS-B
14:56 31.8082 -96.2347 341° North 360 414 43,000  Level FlightAware ADS-B
14:56 31.8220 -96.2414 338° Northwest 358 412 43,000  Level FlightAware ADS-B
14:58 31.9839 -96.3022 342° North  Level FlightAware Approximate
14:59 32.0764 -96.3375 340° North  Level FlightAware Approximate
15:00 32.1677 -96.3766 340° North  Level FlightAware Approximate
15:01 32.2423 -96.4481 317° Northwest  Level FlightAware Approximate
15:01 32.2335 -96.6146 317° Northwest 370 426 43,000  Level FlightAware ADS-B
15:01 32.2791 -96.6568 322° Northwest 372 428 43,000  Level FlightAware ADS-B
15:02 32.3262 -96.7005 322° Northwest 373 429 43,000  Level FlightAware ADS-B
15:03 32.3708 -96.7418 322° Northwest 375 432 43,000  Level FlightAware ADS-B
15:03 32.4350 -96.8015 322° Northwest 376 433 43,000  Level FlightAware ADS-B
15:04 32.4846 -96.8476 322° Northwest 377 434 43,000  Level FlightAware ADS-B
15:05 32.5386 -96.8980 322° Northwest 377 434 43,000  Level FlightAware ADS-B
15:06 32.6096 -96.9644 322° Northwest 377 434 43,000  Level FlightAware ADS-B
15:06 32.6664 -97.0175 322° Northwest 377 434 43,000  Level FlightAware ADS-B
15:07 32.6908 -97.0431 322° Northwest 372 428 43,000  Level Fort Worth Center
15:08 32.7831 -97.1267 323° Northwest 377 434 43,000  Level Fort Worth Center
15:09 32.8519 -97.1983 319° Northwest 377 434 43,000  Level Fort Worth Center
15:10 32.9503 -97.2822 324° Northwest 377 434 43,000  Level Fort Worth Center
15:11 33.0358 -97.3689 320° Northwest 395 455 43,000  Level Fort Worth Center
15:12 33.1194 -97.4481 322° Northwest 395 455 43,000  Level Fort Worth Center
15:13 33.2008 -97.5228 322° Northwest 377 434 43,000  Level Fort Worth Center
15:14 33.2819 -97.5997 322° Northwest 377 434 43,000  Level Fort Worth Center
15:15 33.3653 -97.6794 321° Northwest 377 434 43,000  Level Fort Worth Center
15:16 33.4486 -97.7594 321° Northwest 377 434 43,000  Level Fort Worth Center
15:17 33.5319 -97.8372 322° Northwest 377 434 43,000  Level Fort Worth Center
15:18 33.6131 -97.9147 321° Northwest 377 434 43,000  Level Fort Worth Center
15:19 33.6942 -97.9953 320° Northwest 377 434 43,000  Level Fort Worth Center
15:20 33.7772 -98.0756 321° Northwest 377 434 43,000  Level Fort Worth Center
15:21 33.8581 -98.1539 321° Northwest 377 434 43,000  Level Fort Worth Center
15:22 33.9431 -98.2347 322° Northwest 377 434 43,000  Level Fort Worth Center
15:23 34.0219 -98.3156 320° Northwest 377 434 43,000  Level Fort Worth Center
15:24 34.0881 -98.3789 322° Northwest 377 434 43,000  Level Fort Worth Center
15:25 34.1731 -98.4703 318° Northwest 372 428 43,000  Level Fort Worth Center
15:26 34.2558 -98.5517 321° Northwest 379 436 43,000  Level Fort Worth Center
15:27 34.3386 -98.6308 322° Northwest 379 436 43,000  Level Fort Worth Center
15:28 34.4189 -98.7125 320° Northwest 373 429 43,000  Level Fort Worth Center
15:29 34.5017 -98.7919 322° Northwest 373 429 43,000  Level Fort Worth Center
15:30 34.5822 -98.8714 321° Northwest 373 429 43,000  Level Fort Worth Center
15:31 34.6731 -98.9511 324° Northwest 373 429 43,000  Level Fort Worth Center
15:32 34.7511 -99.0308 320° Northwest 373 429 43,000  Level Fort Worth Center
15:33 34.8336 -99.1136 321° Northwest 373 429 43,000  Level Fort Worth Center
15:34 34.9117 -99.1986 318° Northwest 373 429 43,000  Level Fort Worth Center
15:35 34.9875 -99.2864 317° Northwest 373 429 43,000  Level Fort Worth Center
15:36 35.0633 -99.3742 317° Northwest 373 429 43,000  Level Fort Worth Center
15:37 35.1250 -99.4406 319° Northwest 376 433 43,000  Level Albuquerque Center
15:38 35.2031 -99.5289 317° Northwest 377 434 43,000  Level Albuquerque Center
15:39 35.2811 -99.6158 318° Northwest 378 435 43,000  Level Albuquerque Center
15:40 35.3581 -99.7039 317° Northwest 376 433 43,000  Level Albuquerque Center
15:41 35.4353 -99.7922 317° Northwest 378 435 43,000  Level Albuquerque Center
15:42 35.5125 -99.8806 317° Northwest 377 434 43,000  Level Albuquerque Center
15:43 35.5908 -99.9686 318° Northwest 378 435 43,000  Level Albuquerque Center
15:44 35.6675 -100.0578 317° Northwest 377 434 43,000  Level Albuquerque Center
15:45 35.7606 -100.1647 317° Northwest 378 435 43,000  Level Albuquerque Center
15:46 35.8381 -100.2539 317° Northwest 379 436 43,000  Level Albuquerque Center
15:47 35.9150 -100.3417 317° Northwest 377 434 43,000  Level Albuquerque Center
15:48 35.9928 -100.4331 316° Northwest 380 437 43,000  Level Albuquerque Center
15:49 36.0703 -100.5231 317° Northwest 381 438 43,000  Level Albuquerque Center
15:50 36.1483 -100.6136 317° Northwest 382 440 43,000  Level Albuquerque Center
15:51 36.2250 -100.7031 317° Northwest 380 437 43,000  Level Albuquerque Center
15:52 36.3033 -100.7947 317° Northwest 383 441 43,000  Level Albuquerque Center
15:53 36.3803 -100.8856 316° Northwest 382 440 43,000  Level Albuquerque Center
15:54 36.4672 -100.9883 316° Northwest 383 441 43,000  Level Albuquerque Center
15:55 36.5422 -101.0775 316° Northwest 387 445 43,000  Level Albuquerque Center
15:56 36.6283 -101.1794 316° Northwest 383 441 43,000  Level Albuquerque Center
15:57 36.7031 -101.2700 316° Northwest 387 445 43,000  Level Albuquerque Center
15:58 36.7906 -101.3758 316° Northwest 391 450 43,000  Level Albuquerque Center
15:59 36.8772 -101.4789 316° Northwest 386 444 43,000  Level Kansas City Center
16:00 36.9644 -101.5831 316° Northwest 386 444 43,000  Level Kansas City Center
16:01 37.0381 -101.6733 316° Northwest 387 445 43,000  Level Kansas City Center
16:02 37.1119 -101.7619 316° Northwest 385 443 43,000  Level Kansas City Center
16:03 37.1997 -101.8681 316° Northwest 389 448 43,000  Level Kansas City Center
16:04 37.2733 -101.9578 316° Northwest 386 444 43,000  Level Kansas City Center
16:05 37.3603 -102.0633 316° Northwest 387 445 43,000  Level Kansas City Center
16:06 37.4342 -102.1544 316° Northwest 388 447 43,000  Level Kansas City Center
16:08 37.5081 -102.2447 316° Northwest 387 445 43,000  Level Kansas City Center
16:09 37.5939 -102.3514 315° West 387 445 43,000  Level Kansas City Center
16:10 37.6686 -102.4433 316° Northwest 389 448 43,000  Level Kansas City Center
16:11 37.7544 -102.5489 316° Northwest 387 445 43,000  Level Kansas City Center
16:12 37.8281 -102.6417 315° West 389 448 43,000  Level Kansas City Center
16:13 37.9017 -102.7336 315° West 388 447 43,000  Level Kansas City Center
16:14 38.0192 -102.8800 316° Northwest 389 448 43,000  Level Denver Center
16:15 38.0978 -102.9797 315° West 388 447 43,000  Level Denver Center
16:16 38.1969 -103.1022 316° Northwest 390 449 43,000  Level Denver Center
16:17 38.2750 -103.2033 315° West 388 447 43,000  Level Denver Center
16:18 38.3558 -103.3047 315° West 391 450 43,000  Level Denver Center
16:19 38.4283 -103.3992 314° West 391 450 43,000  Level Denver Center
16:21 38.5083 -103.4997 315° West 392 451 43,000  Level Denver Center
16:22 38.5931 -103.6097 315° West 390 449 43,000  Level Denver Center
16:23 38.6797 -103.7197 315° West 392 451 43,000  Level Denver Center
16:24 38.7642 -103.8317 314° West 391 450 43,000  Level Denver Center
16:25 38.8397 -103.9281 315° West 398 458 43,000  Level Denver Center
16:26 38.9183 -104.0303 315° West 392 451 43,000  Level Denver Center
16:27 38.9797 -104.1117 314° West 395 455 43,000  Level Denver Center
16:28 39.0733 -104.2342 315° West 398 458 43,000  Level Denver Center
16:29 39.1661 -104.3561 314° West 400 460 43,000  Level Denver Center
16:30 39.2442 -104.4589 314° West 400 460 43,000  Level Denver Center
16:31 39.3203 -104.5600 314° West 391 450 43,000  Level Denver Center
16:32 39.3825 -104.6425 314° West 396 456 43,000  Level Denver Center
16:33 39.4797 -104.7756 313° West 408 470 43,000  Level Denver Center
16:34 39.5553 -104.8767 314° West 393 452 43,000  Level Denver Center
16:35 39.6389 -104.9897 314° West 401 461 43,000  Level Denver Center
16:36 39.7150 -105.0922 314° West 392 451 43,000  Level Denver Center
16:37 39.7856 -105.1864 314° West 391 450 43,000  Level Denver Center
16:38 39.8625 -105.2892 314° West 396 456 43,000  Level Denver Center
16:39 39.9542 -105.4161 313° West 397 457 43,000  Level Denver Center
16:40 40.0325 -105.5208 314° West 404 465 43,000  Level Denver Center
16:41 40.1081 -105.6256 313° West 396 456 43,000  Level Denver Center
16:42 40.1856 -105.7303 314° West 398 458 43,000  Level Denver Center
16:43 40.2611 -105.8339 314° West 391 450 43,000  Level Denver Center
16:44 40.3381 -105.9411 313° West 402 463 43,000  Level Denver Center
16:45 40.4150 -106.0486 313° West 403 464 43,000  Level Denver Center
16:46 40.4986 -106.1653 313° West 407 468 43,000  Level Denver Center
16:47 40.5856 -106.2864 313° West 408 470 43,000  Level Denver Center
16:48 40.6583 -106.3894 313° West 403 464 43,000  Level Denver Center
16:50 40.7444 -106.5103 313° West 405 466 43,000  Level Denver Center
16:51 40.8150 -106.6111 313° West 403 464 43,000  Level Denver Center
16:52 40.8978 -106.7286 313° West 393 452 43,000  Level Denver Center
16:53 40.9681 -106.8292 313° West 388 447 43,000  Level Denver Center
16:54 41.0386 -106.9297 313° West 391 450 43,000  Level Denver Center
16:55 41.1206 -107.0492 312° West 393 452 43,000  Level Denver Center
16:56 41.1939 -107.1536 313° West 400 460 43,000  Level Denver Center
16:57 41.2783 -107.2764 312° West 404 465 43,000  Level Denver Center
16:58 41.3497 -107.3808 312° West 400 460 43,000  Level Denver Center
16:59 41.4342 -107.5044 312° West 403 464 43,000  Level Denver Center
17:00 41.5192 -107.6269 313° West 404 465 43,000  Level Denver Center
17:01 41.6031 -107.7514 312° West 405 466 43,000  Level Denver Center
17:02 41.6758 -107.8586 312° West 407 468 43,000  Level Denver Center
17:03 41.7594 -107.9850 312° West 407 468 43,000  Level Salt Lake Center
17:04 41.8436 -108.1103 312° West 406 467 43,000  Level Salt Lake Center
17:05 41.9161 -108.2192 312° West 408 470 43,000  Level Salt Lake Center
17:06 41.9886 -108.3283 312° West 412 474 43,000  Level Salt Lake Center
17:07 42.0733 -108.4564 312° West 412 474 43,000  Level Salt Lake Center
17:08 42.1450 -108.5644 312° West 407 468 43,000  Level Salt Lake Center
17:09 42.2286 -108.6922 311° West 409 471 43,000  Level Salt Lake Center
17:10 42.3006 -108.8031 311° West 410 472 43,000  Level Salt Lake Center
17:11 42.3847 -108.9333 311° West 413 475 43,000  Level Salt Lake Center
17:12 42.4564 -109.0447 311° West 412 474 43,000  Level Salt Lake Center
17:13 42.5389 -109.1728 311° West 407 468 43,000 -480 Level Salt Lake Center
17:14 42.6103 -109.2822 312° West 406 467 42,100 -1,440 Descending Salt Lake Center
17:15 42.6808 -109.3933 311° West 407 468 40,100 -2,160 Descending Salt Lake Center
17:16 42.7619 -109.5208 311° West 401 461 37,700 -2,220 Descending Salt Lake Center
17:17 42.8292 -109.6278 311° West 393 452 35,600 -2,220 Descending Salt Lake Center
17:19 42.9122 -109.7544 312° West 402 463 33,200 -2,280 Descending Salt Lake Center
17:20 42.9908 -109.8803 311° West 414 476 30,900 -2,160 Descending Salt Lake Center
17:21 43.0633 -109.9967 310° West 420 483 28,800 -2,280 Descending Salt Lake Center
17:22 43.1472 -110.1297 311° West 416 479 26,300 -2,280 Descending Salt Lake Center
17:23 43.2167 -110.2419 310° West 406 467 24,200 -2,340 Descending Salt Lake Center
17:24 43.2886 -110.3550 311° West 389 448 21,600 -2,220 Descending Salt Lake Center
17:25 43.3553 -110.4631 310° West 368 423 19,700 -2,160 Descending Salt Lake Center
17:26 43.4158 -110.5600 311° West 336 387 17,200 -1,800 Descending Salt Lake Center
17:27 43.4722 -110.6525 310° West 318 366 16,000 -600 Descending Salt Lake Center
17:28 43.5236 -110.7369 310° West 288 331 16,000 -300 Level Salt Lake Center
17:29 43.5758 -110.8239 310° West 285 328 15,500 -840 Descending Salt Lake Center
17:30 43.6228 -110.9008 310° West 261 300 14,300 -1,920 Descending Salt Lake Center
17:31 43.6647 -110.9808 306° West 260 299 11,600 -2,700 Descending Salt Lake Center